sensor_id;sensor_type;location;lat;lon;timestamp;pressure;altitude;pressure_sealevel;temperature;humidity
29383;BME280;16365;51.598;7.668;2023-02-01T00:01:14;101222.66;;;11.74;49.04
29383;BME280;16365;51.598;7.668;2023-02-01T00:03:41;101220.72;;;11.75;48.64
29383;BME280;16365;51.598;7.668;2023-02-01T00:06:08;101219.88;;;11.74;48.99
29383;BME280;16365;51.598;7.668;2023-02-01T00:08:34;101226.28;;;11.75;48.66
29383;BME280;16365;51.598;7.668;2023-02-01T00:11:02;101229.88;;;11.75;48.69
29383;BME280;16365;51.598;7.668;2023-02-01T00:13:29;101220.38;;;11.76;48.99
29383;BME280;16365;51.598;7.668;2023-02-01T00:16:03;101222.00;;;11.77;48.71
29383;BME280;16365;51.598;7.668;2023-02-01T00:18:30;101222.50;;;11.79;49.10
29383;BME280;16365;51.598;7.668;2023-02-01T00:20:56;101217.44;;;11.81;48.81
29383;BME280;16365;51.598;7.668;2023-02-01T00:23:45;101208.81;;;11.83;49.02
29383;BME280;16365;51.598;7.668;2023-02-01T00:26:16;101211.28;;;11.85;49.10
29383;BME280;16365;51.598;7.668;2023-02-01T00:28:44;101211.44;;;11.88;49.29
29383;BME280;16365;51.598;7.668;2023-02-01T00:31:12;101203.59;;;11.90;49.43
29383;BME280;16365;51.598;7.668;2023-02-01T00:33:46;101197.72;;;11.92;48.88
29383;BME280;16365;51.598;7.668;2023-02-01T00:36:13;101207.69;;;11.93;48.96
29383;BME280;16365;51.598;7.668;2023-02-01T00:38:41;101203.44;;;11.95;49.06
29383;BME280;16365;51.598;7.668;2023-02-01T00:41:16;101193.16;;;11.96;49.02
29383;BME280;16365;51.598;7.668;2023-02-01T00:43:45;101185.28;;;11.98;48.72
29383;BME280;16365;51.598;7.668;2023-02-01T00:46:12;101178.59;;;11.99;48.63
29383;BME280;16365;51.598;7.668;2023-02-01T00:48:45;101191.38;;;12.00;49.43
29383;BME280;16365;51.598;7.668;2023-02-01T00:51:12;101188.59;;;12.00;49.50
29383;BME280;16365;51.598;7.668;2023-02-01T00:53:40;101193.16;;;12.04;48.36
29383;BME280;16365;51.598;7.668;2023-02-01T00:56:08;101196.75;;;12.05;48.68
29383;BME280;16365;51.598;7.668;2023-02-01T00:58:35;101198.88;;;12.08;48.49
29383;BME280;16365;51.598;7.668;2023-02-01T01:01:15;101190.22;;;12.09;49.13
29383;BME280;16365;51.598;7.668;2023-02-01T01:03:42;101195.44;;;12.11;48.69
29383;BME280;16365;51.598;7.668;2023-02-01T01:06:10;101187.09;;;12.11;48.92
29383;BME280;16365;51.598;7.668;2023-02-01T01:08:40;101193.66;;;12.15;48.81
29383;BME280;16365;51.598;7.668;2023-02-01T01:11:12;101188.91;;;12.16;48.62
29383;BME280;16365;51.598;7.668;2023-02-01T01:13:40;101186.59;;;12.18;48.92
29383;BME280;16365;51.598;7.668;2023-02-01T01:16:07;101187.13;;;12.20;48.34
29383;BME280;16365;51.598;7.668;2023-02-01T01:18:39;101183.19;;;12.21;48.41
29383;BME280;16365;51.598;7.668;2023-02-01T01:21:08;101172.88;;;12.21;48.21
29383;BME280;16365;51.598;7.668;2023-02-01T01:23:34;101181.72;;;12.23;49.05
29383;BME280;16365;51.598;7.668;2023-02-01T01:26:04;101190.53;;;12.25;48.28
29383;BME280;16365;51.598;7.668;2023-02-01T01:28:33;101188.25;;;12.27;48.43
29383;BME280;16365;51.598;7.668;2023-02-01T01:30:59;101186.28;;;12.28;48.31
29383;BME280;16365;51.598;7.668;2023-02-01T01:33:27;101177.94;;;12.28;48.16
29383;BME280;16365;51.598;7.668;2023-02-01T01:36:00;101181.22;;;12.30;48.93
29383;BME280;16365;51.598;7.668;2023-02-01T01:38:28;101175.31;;;12.31;48.40
29383;BME280;16365;51.598;7.668;2023-02-01T01:41:02;101180.06;;;12.31;48.12
29383;BME280;16365;51.598;7.668;2023-02-01T01:46:16;101180.88;;;12.31;48.41
29383;BME280;16365;51.598;7.668;2023-02-01T01:48:50;101180.88;;;12.31;48.30
29383;BME280;16365;51.598;7.668;2023-02-01T01:51:19;101177.78;;;12.33;48.39
29383;BME280;16365;51.598;7.668;2023-02-01T01:53:50;101176.63;;;12.34;48.03
29383;BME280;16365;51.598;7.668;2023-02-01T01:56:19;101177.78;;;12.33;47.73
29383;BME280;16365;51.598;7.668;2023-02-01T01:58:46;101169.13;;;12.34;48.04
29383;BME280;16365;51.598;7.668;2023-02-01T02:01:12;101160.78;;;12.34;48.18
29383;BME280;16365;51.598;7.668;2023-02-01T02:03:40;101154.41;;;12.34;47.98
29383;BME280;16365;51.598;7.668;2023-02-01T02:06:14;101152.09;;;12.36;48.11
29383;BME280;16365;51.598;7.668;2023-02-01T02:08:42;101144.91;;;12.35;48.29
29383;BME280;16365;51.598;7.668;2023-02-01T02:11:11;101144.56;;;12.37;48.31
29383;BME280;16365;51.598;7.668;2023-02-01T02:13:40;101148.50;;;12.35;48.06
29383;BME280;16365;51.598;7.668;2023-02-01T02:24:33;101126.09;;;12.32;47.90
29383;BME280;16365;51.598;7.668;2023-02-01T02:37:37;101113.34;;;12.31;48.27
29383;BME280;16365;51.598;7.668;2023-02-01T02:46:01;101130.19;;;12.34;47.34
29383;BME280;16365;51.598;7.668;2023-02-01T02:49:00;101125.44;;;12.35;48.10
29383;BME280;16365;51.598;7.668;2023-02-01T02:52:13;101120.69;;;12.35;48.11
29383;BME280;16365;51.598;7.668;2023-02-01T02:54:40;101107.25;;;12.38;48.27
29383;BME280;16365;51.598;7.668;2023-02-01T02:57:16;101098.91;;;12.38;47.78
29383;BME280;16365;51.598;7.668;2023-02-01T03:00:05;101107.78;;;12.40;47.99
29383;BME280;16365;51.598;7.668;2023-02-01T03:02:51;101103.03;;;12.40;47.67
29383;BME280;16365;51.598;7.668;2023-02-01T03:05:39;101087.16;;;12.41;47.70
29383;BME280;16365;51.598;7.668;2023-02-01T03:08:10;101092.72;;;12.41;48.04
29383;BME280;16365;51.598;7.668;2023-02-01T03:13:31;101089.47;;;12.39;47.77
29383;BME280;16365;51.598;7.668;2023-02-01T03:18:30;101073.09;;;12.37;47.95
29383;BME280;16365;51.598;7.668;2023-02-01T03:21:02;101069.50;;;12.37;47.42
29383;BME280;16365;51.598;7.668;2023-02-01T03:23:33;101064.28;;;12.35;47.31
29383;BME280;16365;51.598;7.668;2023-02-01T03:26:01;101065.09;;;12.35;47.88
29383;BME280;16365;51.598;7.668;2023-02-01T03:28:29;101055.13;;;12.34;47.84
29383;BME280;16365;51.598;7.668;2023-02-01T03:31:02;101058.72;;;12.35;47.34
29383;BME280;16365;51.598;7.668;2023-02-01T03:33:29;101051.53;;;12.34;47.53
29383;BME280;16365;51.598;7.668;2023-02-01T03:38:31;101052.19;;;12.31;47.55
29383;BME280;16365;51.598;7.668;2023-02-01T03:44:32;101056.09;;;12.30;47.49
29383;BME280;16365;51.598;7.668;2023-02-01T03:46:33;101043.34;;;12.29;47.79
29383;BME280;16365;51.598;7.668;2023-02-01T03:49:05;101046.31;;;12.24;46.05
29383;BME280;16365;51.598;7.668;2023-02-01T03:51:37;101050.03;;;12.28;47.03
29383;BME280;16365;51.598;7.668;2023-02-01T03:54:10;101044.00;;;12.26;47.37
29383;BME280;16365;51.598;7.668;2023-02-01T03:56:38;101045.16;;;12.25;47.04
29383;BME280;16365;51.598;7.668;2023-02-01T03:59:13;101045.63;;;12.27;47.83
29383;BME280;16365;51.598;7.668;2023-02-01T04:01:40;101045.63;;;12.27;47.71
29383;BME280;16365;51.598;7.668;2023-02-01T04:04:07;101039.25;;;12.26;47.34
29383;BME280;16365;51.598;7.668;2023-02-01T04:06:33;101045.63;;;12.27;47.01
29383;BME280;16365;51.598;7.668;2023-02-01T04:08:59;101053.97;;;12.27;46.80
29383;BME280;16365;51.598;7.668;2023-02-01T04:11:26;101048.41;;;12.27;47.17
29383;BME280;16365;51.598;7.668;2023-02-01T04:13:53;101057.56;;;12.27;47.59
29383;BME280;16365;51.598;7.668;2023-02-01T04:16:20;101055.13;;;12.26;46.79
29383;BME280;16365;51.598;7.668;2023-02-01T04:18:47;101054.78;;;12.27;46.66
29383;BME280;16365;51.598;7.668;2023-02-01T04:21:14;101045.63;;;12.27;46.83
29383;BME280;16365;51.598;7.668;2023-02-01T04:23:42;101051.19;;;12.27;47.22
29383;BME280;16365;51.598;7.668;2023-02-01T04:26:09;101053.66;;;12.28;47.23
29383;BME280;16365;51.598;7.668;2023-02-01T04:28:38;101050.03;;;12.28;47.00
29383;BME280;16365;51.598;7.668;2023-02-01T04:31:04;101044.81;;;12.26;46.78
29383;BME280;16365;51.598;7.668;2023-02-01T04:33:30;101043.66;;;12.27;47.27
29383;BME280;16365;51.598;7.668;2023-02-01T04:35:59;101038.13;;;12.27;47.49
29383;BME280;16365;51.598;7.668;2023-02-01T04:38:25;101027.81;;;12.28;47.61
29383;BME280;16365;51.598;7.668;2023-02-01T04:40:51;101033.38;;;12.28;47.29
29383;BME280;16365;51.598;7.668;2023-02-01T04:43:17;101033.38;;;12.28;46.70
29383;BME280;16365;51.598;7.668;2023-02-01T04:45:48;101039.78;;;12.28;46.90
29383;BME280;16365;51.598;7.668;2023-02-01T04:48:15;101026.19;;;12.27;46.48
29383;BME280;16365;51.598;7.668;2023-02-01T04:50:42;101011.47;;;12.26;47.52
29383;BME280;16365;51.598;7.668;2023-02-01T04:53:09;101021.78;;;12.26;46.96
29383;BME280;16365;51.598;7.668;2023-02-01T04:55:35;101015.06;;;12.27;47.17
29383;BME280;16365;51.598;7.668;2023-02-01T04:58:01;101021.78;;;12.26;47.06
29383;BME280;16365;51.598;7.668;2023-02-01T05:00:28;101024.56;;;12.26;46.77
29383;BME280;16365;51.598;7.668;2023-02-01T05:02:54;101028.81;;;12.23;46.79
29383;BME280;16365;51.598;7.668;2023-02-01T05:05:20;101026.06;;;12.23;46.74
29383;BME280;16365;51.598;7.668;2023-02-01T05:07:47;101034.84;;;12.25;47.34
29383;BME280;16365;51.598;7.668;2023-02-01T05:10:13;101039.25;;;12.26;46.35
29383;BME280;16365;51.598;7.668;2023-02-01T05:12:40;101023.75;;;12.25;46.80
29383;BME280;16365;51.598;7.668;2023-02-01T05:15:25;101022.25;;;12.28;46.92
29383;BME280;16365;51.598;7.668;2023-02-01T05:17:53;101021.94;;;12.29;46.36
29383;BME280;16365;51.598;7.668;2023-02-01T05:20:19;101026.34;;;12.30;46.84
29383;BME280;16365;51.598;7.668;2023-02-01T05:22:46;101023.22;;;12.32;47.28
29383;BME280;16365;51.598;7.668;2023-02-01T05:25:13;101024.03;;;12.32;46.32
29383;BME280;16365;51.598;7.668;2023-02-01T05:27:39;101024.03;;;12.32;46.52
29383;BME280;16365;51.598;7.668;2023-02-01T05:30:05;101025.69;;;12.33;47.36
29383;BME280;16365;51.598;7.668;2023-02-01T05:32:32;101033.69;;;12.35;46.80
29383;BME280;16365;51.598;7.668;2023-02-01T05:34:59;101039.25;;;12.35;46.99
29383;BME280;16365;51.598;7.668;2023-02-01T05:37:25;101035.31;;;12.36;46.56
29383;BME280;16365;51.598;7.668;2023-02-01T05:39:52;101040.88;;;12.36;46.98
29383;BME280;16365;51.598;7.668;2023-02-01T05:42:18;101042.50;;;12.37;46.99
29383;BME280;16365;51.598;7.668;2023-02-01T05:44:45;101025.00;;;12.37;46.99
29383;BME280;16365;51.598;7.668;2023-02-01T05:47:11;101021.91;;;12.38;46.96
29383;BME280;16365;51.598;7.668;2023-02-01T05:49:38;101014.69;;;12.37;47.34
29383;BME280;16365;51.598;7.668;2023-02-01T05:52:05;101004.38;;;12.38;46.68
29383;BME280;16365;51.598;7.668;2023-02-01T05:54:31;101009.13;;;12.37;46.66
29383;BME280;16365;51.598;7.668;2023-02-01T05:56:57;101005.88;;;12.35;46.51
29383;BME280;16365;51.598;7.668;2023-02-01T05:59:24;101000.16;;;12.31;46.32
29383;BME280;16365;51.598;7.668;2023-02-01T06:01:50;101006.06;;;12.30;47.04
29383;BME280;16365;51.598;7.668;2023-02-01T06:04:16;101002.31;;;12.26;46.30
29383;BME280;16365;51.598;7.668;2023-02-01T06:06:43;101005.28;;;12.21;45.85
29383;BME280;16365;51.598;7.668;2023-02-01T06:09:09;101001.69;;;12.20;46.46
29383;BME280;16365;51.598;7.668;2023-02-01T06:11:35;100995.63;;;12.18;46.67
29383;BME280;16365;51.598;7.668;2023-02-01T06:14:04;101013.13;;;12.19;46.56
29383;BME280;16365;51.598;7.668;2023-02-01T06:16:30;101011.19;;;12.19;46.59
29383;BME280;16365;51.598;7.668;2023-02-01T06:18:58;101007.25;;;12.20;46.07
29383;BME280;16365;51.598;7.668;2023-02-01T06:21:24;101014.44;;;12.21;46.55
29383;BME280;16365;51.598;7.668;2023-02-01T06:23:51;101012.97;;;12.24;47.10
29383;BME280;16365;51.598;7.668;2023-02-01T06:26:17;101023.41;;;12.27;47.28
29383;BME280;16365;51.598;7.668;2023-02-01T06:28:44;101023.09;;;12.28;46.72
29383;BME280;16365;51.598;7.668;2023-02-01T06:31:13;101023.91;;;12.29;47.16
29383;BME280;16365;51.598;7.668;2023-02-01T06:33:40;101027.97;;;12.31;47.25
29383;BME280;16365;51.598;7.668;2023-02-01T06:36:07;101036.66;;;12.30;46.79
29383;BME280;16365;51.598;7.668;2023-02-01T06:38:34;101045.47;;;12.32;46.75
29383;BME280;16365;51.598;7.668;2023-02-01T06:41:01;101031.56;;;12.32;46.49
29383;BME280;16365;51.598;7.668;2023-02-01T06:43:28;101035.84;;;12.29;46.46
29383;BME280;16365;51.598;7.668;2023-02-01T06:45:59;101030.59;;;12.28;46.80
29383;BME280;16365;51.598;7.668;2023-02-01T06:48:26;101039.25;;;12.26;46.40
29383;BME280;16365;51.598;7.668;2023-02-01T06:50:52;101040.41;;;12.25;46.32
29383;BME280;16365;51.598;7.668;2023-02-01T06:53:18;101049.91;;;12.24;46.54
29383;BME280;16365;51.598;7.668;2023-02-01T06:55:56;101053.84;;;12.23;46.10
29383;BME280;16365;51.598;7.668;2023-02-01T06:58:23;101043.84;;;12.22;46.16
29383;BME280;16365;51.598;7.668;2023-02-01T07:00:49;101045.00;;;12.21;46.32
29383;BME280;16365;51.598;7.668;2023-02-01T07:03:16;101040.59;;;12.20;46.45
29383;BME280;16365;51.598;7.668;2023-02-01T07:05:42;101052.88;;;12.19;46.88
29383;BME280;16365;51.598;7.668;2023-02-01T07:08:09;101041.75;;;12.19;46.69
29383;BME280;16365;51.598;7.668;2023-02-01T07:10:36;101038.16;;;12.19;46.30
29383;BME280;16365;51.598;7.668;2023-02-01T07:13:03;101040.94;;;12.19;46.42
29383;BME280;16365;51.598;7.668;2023-02-01T07:15:30;101065.63;;;12.20;46.86
29383;BME280;16365;51.598;7.668;2023-02-01T07:17:56;101073.97;;;12.20;46.80
29383;BME280;16365;51.598;7.668;2023-02-01T07:20:23;101072.00;;;12.21;47.01
29383;BME280;16365;51.598;7.668;2023-02-01T07:22:54;101080.00;;;12.22;46.80
29383;BME280;16365;51.598;7.668;2023-02-01T07:25:21;101072.47;;;12.23;46.19
29383;BME280;16365;51.598;7.668;2023-02-01T07:27:47;101067.41;;;12.25;47.16
29383;BME280;16365;51.598;7.668;2023-02-01T07:30:14;101077.38;;;12.26;46.77
29383;BME280;16365;51.598;7.668;2023-02-01T07:32:40;101076.22;;;12.27;46.81
29383;BME280;16365;51.598;7.668;2023-02-01T07:35:07;101095.38;;;12.28;46.76
29383;BME280;16365;51.598;7.668;2023-02-01T07:37:34;101093.41;;;12.29;47.16
29383;BME280;16365;51.598;7.668;2023-02-01T07:40:00;101097.00;;;12.29;46.73
29383;BME280;16365;51.598;7.668;2023-02-01T07:42:27;101083.91;;;12.30;46.75
29383;BME280;16365;51.598;7.668;2023-02-01T07:44:53;101088.31;;;12.31;46.93
29383;BME280;16365;51.598;7.668;2023-02-01T07:47:20;101103.03;;;12.31;46.46
29383;BME280;16365;51.598;7.668;2023-02-01T07:49:46;101098.28;;;12.32;46.49
29383;BME280;16365;51.598;7.668;2023-02-01T07:52:13;101102.72;;;12.33;46.62
29383;BME280;16365;51.598;7.668;2023-02-01T07:54:43;101095.84;;;12.30;46.16
29383;BME280;16365;51.598;7.668;2023-02-01T07:57:09;101092.41;;;12.33;46.57
29383;BME280;16365;51.598;7.668;2023-02-01T07:59:37;101096.47;;;12.36;46.58
29383;BME280;16365;51.598;7.668;2023-02-01T08:02:26;101105.31;;;12.38;46.76
29383;BME280;16365;51.598;7.668;2023-02-01T08:04:53;101100.59;;;12.39;47.15
29383;BME280;16365;51.598;7.668;2023-02-01T08:07:19;101095.00;;;12.39;46.90
29383;BME280;16365;51.598;7.668;2023-02-01T08:09:45;101098.28;;;12.41;47.08
29383;BME280;16365;51.598;7.668;2023-02-01T08:12:12;101099.91;;;12.42;46.71
29383;BME280;16365;51.598;7.668;2023-02-01T08:14:38;101101.22;;;12.44;46.63
29383;BME280;16365;51.598;7.668;2023-02-01T08:17:07;101106.44;;;12.46;46.76
29383;BME280;16365;51.598;7.668;2023-02-01T08:19:33;101096.94;;;12.47;46.54
29383;BME280;16365;51.598;7.668;2023-02-01T08:21:59;101101.03;;;12.49;47.10
29383;BME280;16365;51.598;7.668;2023-02-01T08:24:28;101093.84;;;12.48;46.59
29383;BME280;16365;51.598;7.668;2023-02-01T08:26:54;101112.97;;;12.50;46.63
29383;BME280;16365;51.598;7.668;2023-02-01T08:29:21;101113.44;;;12.52;47.19
29383;BME280;16365;51.598;7.668;2023-02-01T08:31:47;101119.84;;;12.52;47.11
29383;BME280;16365;51.598;7.668;2023-02-01T08:34:13;101111.50;;;12.52;46.72
29383;BME280;16365;51.598;7.668;2023-02-01T08:36:39;101110.34;;;12.53;46.75
29383;BME280;16365;51.598;7.668;2023-02-01T08:39:06;101110.00;;;12.55;46.33
29383;BME280;16365;51.598;7.668;2023-02-01T08:41:35;101119.97;;;12.56;47.05
29383;BME280;16365;51.598;7.668;2023-02-01T08:44:01;101106.88;;;12.56;46.96
29383;BME280;16365;51.598;7.668;2023-02-01T08:46:29;101107.69;;;12.57;46.71
29383;BME280;16365;51.598;7.668;2023-02-01T08:48:55;101105.44;;;12.59;46.77
29383;BME280;16365;51.598;7.668;2023-02-01T08:51:22;101102.66;;;12.59;46.58
29383;BME280;16365;51.598;7.668;2023-02-01T08:53:49;101118.69;;;12.62;46.89
29383;BME280;16365;51.598;7.668;2023-02-01T08:56:16;101105.59;;;12.63;47.12
29383;BME280;16365;51.598;7.668;2023-02-01T08:58:43;101111.28;;;12.66;47.08
29383;BME280;16365;51.598;7.668;2023-02-01T09:01:10;101114.06;;;12.66;46.88
29383;BME280;16365;51.598;7.668;2023-02-01T09:03:37;101119.78;;;12.70;47.30
29383;BME280;16365;51.598;7.668;2023-02-01T09:06:04;101121.09;;;12.72;46.59
29383;BME280;16365;51.598;7.668;2023-02-01T09:08:31;101115.19;;;12.74;46.56
29383;BME280;16365;51.598;7.668;2023-02-01T09:11:01;101116.00;;;12.74;46.55
29383;BME280;16365;51.598;7.668;2023-02-01T09:13:28;101117.97;;;12.74;47.02
29383;BME280;16365;51.598;7.668;2023-02-01T09:15:55;101119.94;;;12.73;46.50
29383;BME280;16365;51.598;7.668;2023-02-01T09:18:22;101109.97;;;12.72;46.84
29383;BME280;16365;51.598;7.668;2023-02-01T09:20:48;101112.75;;;12.72;46.35
29383;BME280;16365;51.598;7.668;2023-02-01T09:23:15;101106.38;;;12.72;46.16
29383;BME280;16365;51.598;7.668;2023-02-01T09:25:41;101098.84;;;12.72;46.22
29383;BME280;16365;51.598;7.668;2023-02-01T09:28:08;101098.84;;;12.72;46.67
29383;BME280;16365;51.598;7.668;2023-02-01T09:30:35;101095.72;;;12.74;46.96
29383;BME280;16365;51.598;7.668;2023-02-01T09:33:02;101088.66;;;12.76;46.58
29383;BME280;16365;51.598;7.668;2023-02-01T09:35:29;101090.78;;;12.79;46.55
29383;BME280;16365;51.598;7.668;2023-02-01T09:37:55;101081.78;;;12.82;46.93
29383;BME280;16365;51.598;7.668;2023-02-01T09:40:21;101079.47;;;12.84;46.45
29383;BME280;16365;51.598;7.668;2023-02-01T09:42:53;101084.69;;;12.86;46.58
29383;BME280;16365;51.598;7.668;2023-02-01T09:47:51;101094.50;;;12.92;46.87
29383;BME280;16365;51.598;7.668;2023-02-01T09:50:20;101093.81;;;12.95;46.32
29383;BME280;16365;51.598;7.668;2023-02-01T09:52:54;101085.16;;;12.97;46.32
29383;BME280;16365;51.598;7.668;2023-02-01T09:58:05;101091.53;;;12.97;45.92
29383;BME280;16365;51.598;7.668;2023-02-01T10:00:35;101089.56;;;12.98;46.20
29383;BME280;16365;51.598;7.668;2023-02-01T10:03:03;101081.22;;;12.98;46.24
29383;BME280;16365;51.598;7.668;2023-02-01T10:08:09;101090.03;;;13.00;47.00
29383;BME280;16365;51.598;7.668;2023-02-01T10:11:00;101085.28;;;13.00;45.79
29383;BME280;16365;51.598;7.668;2023-02-01T10:13:38;101074.97;;;13.01;46.53
29383;BME280;16365;51.598;7.668;2023-02-01T10:16:16;101069.53;;;13.04;46.14
29383;BME280;16365;51.598;7.668;2023-02-01T10:18:50;101078.38;;;13.06;46.08
29383;BME280;16365;51.598;7.668;2023-02-01T10:27:11;101095.06;;;13.15;46.32
29383;BME280;16365;51.598;7.668;2023-02-01T10:29:42;101093.53;;;13.18;46.29
29383;BME280;16365;51.598;7.668;2023-02-01T10:32:13;101065.84;;;13.21;46.65
29383;BME280;16365;51.598;7.668;2023-02-01T10:34:40;101098.13;;;13.22;46.38
29383;BME280;16365;51.598;7.668;2023-02-01T10:37:14;101087.16;;;13.26;46.67
29383;BME280;16365;51.598;7.668;2023-02-01T10:39:46;101089.59;;;13.27;46.75
29383;BME280;16365;51.598;7.668;2023-02-01T10:42:13;101093.19;;;13.28;46.52
29383;BME280;16365;51.598;7.668;2023-02-01T10:44:41;101085.31;;;13.30;46.38
29383;BME280;16365;51.598;7.668;2023-02-01T10:47:11;101100.38;;;13.29;45.97
29383;BME280;16365;51.598;7.668;2023-02-01T10:49:51;101067.47;;;13.31;45.96
29383;BME280;16365;51.598;7.668;2023-02-01T10:52:35;101075.66;;;13.27;45.58
29383;BME280;16365;51.598;7.668;2023-02-01T10:57:54;101081.09;;;13.24;45.66
29383;BME280;16365;51.598;7.668;2023-02-01T11:00:21;101077.84;;;13.22;46.47
29383;BME280;16365;51.598;7.668;2023-02-01T11:02:48;101087.00;;;13.22;46.11
29383;BME280;16365;51.598;7.668;2023-02-01T11:05:16;101074.22;;;13.21;45.77
29383;BME280;16365;51.598;7.668;2023-02-01T11:07:48;101076.50;;;13.19;45.09
29383;BME280;16365;51.598;7.668;2023-02-01T11:13:02;101060.59;;;13.20;46.30
29383;BME280;16365;51.598;7.668;2023-02-01T11:15:28;101059.78;;;13.19;45.84
29383;BME280;16365;51.598;7.668;2023-02-01T11:17:55;101052.59;;;13.18;46.37
29383;BME280;16365;51.598;7.668;2023-02-01T11:22:58;101056.03;;;13.24;45.69
29383;BME280;16365;51.598;7.668;2023-02-01T11:25:24;101042.91;;;13.24;46.29
29383;BME280;16365;51.598;7.668;2023-02-01T11:27:53;101047.66;;;13.24;46.16
29383;BME280;16365;51.598;7.668;2023-02-01T11:32:57;101031.78;;;13.24;45.66
29383;BME280;16365;51.598;7.668;2023-02-01T11:35:23;101023.44;;;13.24;45.51
29383;BME280;16365;51.598;7.668;2023-02-01T11:37:54;101021.81;;;13.23;46.10
29383;BME280;16365;51.598;7.668;2023-02-01T11:40:23;101018.19;;;13.23;46.00
29383;BME280;16365;51.598;7.668;2023-02-01T11:42:54;101015.41;;;13.23;45.65
29383;BME280;16365;51.598;7.668;2023-02-01T11:45:28;101006.25;;;13.22;45.65
29383;BME280;16365;51.598;7.668;2023-02-01T11:47:56;100994.78;;;13.24;46.13
29383;BME280;16365;51.598;7.668;2023-02-01T11:58:26;100967.00;;;13.36;46.64
29383;BME280;16365;51.598;7.668;2023-02-01T12:22:18;100963.72;;;13.34;45.30
29383;BME280;16365;51.598;7.668;2023-02-01T12:34:53;100955.91;;;13.06;46.02
29383;BME280;16365;51.598;7.668;2023-02-01T12:40:17;100955.81;;;12.94;45.95
29383;BME280;16365;51.598;7.668;2023-02-01T12:42:57;100947.22;;;12.87;46.49
29383;BME280;16365;51.598;7.668;2023-02-01T12:50:32;100939.38;;;12.80;45.88
29383;BME280;16365;51.598;7.668;2023-02-01T12:53:07;100932.19;;;12.79;46.13
29383;BME280;16365;51.598;7.668;2023-02-01T12:55:42;100909.13;;;12.79;46.16
29383;BME280;16365;51.598;7.668;2023-02-01T12:58:20;100917.13;;;12.80;46.13
29383;BME280;16365;51.598;7.668;2023-02-01T13:03:50;100910.06;;;12.83;45.90
29383;BME280;16365;51.598;7.668;2023-02-01T13:06:24;100909.56;;;12.81;46.14
29383;BME280;16365;51.598;7.668;2023-02-01T13:08:54;100928.75;;;12.82;46.20
29383;BME280;16365;51.598;7.668;2023-02-01T13:11:28;100922.81;;;12.84;46.38
29383;BME280;16365;51.598;7.668;2023-02-01T13:13:59;100931.53;;;12.82;45.88
29383;BME280;16365;51.598;7.668;2023-02-01T13:16:32;100921.88;;;12.80;46.00
29383;BME280;16365;51.598;7.668;2023-02-01T13:19:05;100915.84;;;12.78;46.49
29383;BME280;16365;51.598;7.668;2023-02-01T13:21:35;100926.16;;;12.77;46.63
29383;BME280;16365;51.598;7.668;2023-02-01T13:24:06;100937.59;;;12.76;
29383;BME280;16365;51.598;7.668;2023-02-01T13:26:40;100931.22;;;12.75;46.27
29383;BME280;16365;51.598;7.668;2023-02-01T13:29:08;100921.59;;;12.73;47.50
29383;BME280;16365;51.598;7.668;2023-02-01T13:39:59;100910.06;;;12.83;46.75
29383;BME280;16365;51.598;7.668;2023-02-01T13:42:27;100911.34;;;12.85;46.80
29383;BME280;16365;51.598;7.668;2023-02-01T13:47:26;100916.03;;;12.94;47.16
29383;BME280;16365;51.598;7.668;2023-02-01T13:49:54;100907.50;;;12.99;47.37
29383;BME280;16365;51.598;7.668;2023-02-01T13:52:24;100920.38;;;13.03;47.28
29383;BME280;16365;51.598;7.668;2023-02-01T13:55:00;100914.63;;;13.08;47.27
29383;BME280;16365;51.598;7.668;2023-02-01T13:57:35;100919.97;;;13.13;47.38
29383;BME280;16365;51.598;7.668;2023-02-01T14:00:06;100925.34;;;13.19;47.19
29383;BME280;16365;51.598;7.668;2023-02-01T14:02:44;100916.34;;;13.22;47.24
29383;BME280;16365;51.598;7.668;2023-02-01T14:05:57;100922.50;;;13.27;47.17
29383;BME280;16365;51.598;7.668;2023-02-01T14:13:29;100913.28;;;13.35;46.90
29383;BME280;16365;51.598;7.668;2023-02-01T14:21:22;100914.03;;;13.45;46.79
29383;BME280;16365;51.598;7.668;2023-02-01T14:28:46;100914.75;;;13.54;47.08
29383;BME280;16365;51.598;7.668;2023-02-01T14:31:32;100931.91;;;13.56;46.60
29383;BME280;16365;51.598;7.668;2023-02-01T14:34:00;100927.03;;;13.53;45.91
29383;BME280;16365;51.598;7.668;2023-02-01T14:36:38;100942.25;;;13.55;46.59
29383;BME280;16365;51.598;7.668;2023-02-01T14:39:16;100941.44;;;13.55;46.22
29383;BME280;16365;51.598;7.668;2023-02-01T14:41:44;100935.88;;;13.55;46.57
29383;BME280;16365;51.598;7.668;2023-02-01T14:44:13;100937.34;;;13.52;46.36
29383;BME280;16365;51.598;7.668;2023-02-01T14:49:28;100933.63;;;13.48;46.92
29383;BME280;16365;51.598;7.668;2023-02-01T14:51:56;100940.84;;;13.49;46.85
29383;BME280;16365;51.598;7.668;2023-02-01T14:54:23;100938.06;;;13.49;46.29
29383;BME280;16365;51.598;7.668;2023-02-01T14:56:49;100949.19;;;13.49;47.03
29383;BME280;16365;51.598;7.668;2023-02-01T14:59:17;100933.75;;;13.52;47.03
29383;BME280;16365;51.598;7.668;2023-02-01T15:01:50;100946.53;;;13.53;46.61
29383;BME280;16365;51.598;7.668;2023-02-01T15:04:17;100940.63;;;13.54;46.92
29383;BME280;16365;51.598;7.668;2023-02-01T15:12:38;100952.38;;;13.60;46.79
29383;BME280;16365;51.598;7.668;2023-02-01T15:14:43;100954.00;;;13.61;46.48
29383;BME280;16365;51.598;7.668;2023-02-01T15:17:28;100956.78;;;13.61;46.44
29383;BME280;16365;51.598;7.668;2023-02-01T15:20:14;100973.94;;;13.63;46.40
29383;BME280;16365;51.598;7.668;2023-02-01T15:25:26;100976.41;;;13.65;46.80
29383;BME280;16365;51.598;7.668;2023-02-01T15:27:53;100966.91;;;13.66;46.92
29383;BME280;16365;51.598;7.668;2023-02-01T15:30:21;100973.75;;;13.68;46.75
29383;BME280;16365;51.598;7.668;2023-02-01T15:32:48;100967.34;;;13.68;46.21